EGPE

Inverness Airport

Inverness, United Kingdom

EGPE 190850Z 12007KT 9999 FEW012 SCT024 12/10 Q1002

Observed Flight Rules
Oct-19 @ 08:50 UTC (24 minutes ago)
 
Visual Flight Rules
Wind Visibility Clouds
120° at 7 knots 10,000+ meters
  • Few at 1,200' AGL
  • Scattered at 2,400' AGL
Temperatures Readings
Current 12°C / 54°F
Dewpoint 10°C / 50°F
Humidity 88%
Altimeter 29.59" Hg
Pressure 1002 hPa
Elevation 9
Observed Flight Rules
Oct-19 @ 08:50 UTC
(24 minutes ago)
 
VFR
Wind Visibility
120° at 7 knots 10,000+ meters
Clouds
  • Few at 1,200' AGL
  • Scattered at 2,400' AGL
Temperature Dewpoint
12°C / 54°F 10°C / 50°F
Humidity Altimeter Pressure
88% 29.59" Hg 1002 hPa